aviador You're here:

KCSM Decoded Metar

CLINTON in OK, USA
Report Time2017-07-21 07:53:00
UTC Time2017-07-21 08:39:07
Flight Rules vfr VFR
Wind180° at 15 kt
W.Decomp.*RWY 17: 15.0 kt HW 0.5 kt RCW
W.Rank180° ranks 1
Current wind is above 180° avg. (13.8)
Visibility9999 m
Phenomena:N/A
Clouds:Broken 100 Hf
Expected CloudBase > 4,000 ft AGL from Temp-Dew spread
Ceiling10,000 ft
Temp28°C (ISA +17)
Dew Point18°C (55% RH)
Heat Index28.9°C
AAT25.4°C
QNH1017 hPa
Density Alt4,006 ft
Elevation1,929 ft
Report Wrong Elevation
Raw Report
KCSM 210753Z AUTO 18015KT 10SM BKN100 28/18 A3003 RMK AO2 SLP136
T02780178=

Extra information for KCSM:More info

Metar Taf Metar & Taf Last 4 Metars F.Rules Stats Wind Profile Meteogram Temp Stats Airport Information Weather charts Add Link Nearby VenuesMetar ALERT Operation Metar Decoded Social comments

AIRNAV info for KCSM